.
WxDataArchive / Data Records for 2009-03-16
2009-03-15 March 2009 2009-03-17

Data Records for Monday, 16 March 2009

Time	Temp	Chill	HIndex	Humid	Dewpt	 Wind 	HiWind	WindDir	Rain 	Barom 
-----	----	-----	------	-----	-----	------	------	-------	-----	----- 
00:00	38.5	38.5	38.5	56	24.2	0	2	90	0.00	30.192 
00:05	38.2	38.2	38.2	56	23.9	0	2	90	0.00	30.192 
00:10	38.0	38.0	38.0	57	24.1	0	1	90	0.00	30.191 
00:15	37.8	37.8	37.8	57	24.0	0	1	90	0.00	30.188 
00:20	37.6	37.6	37.6	58	24.2	0	1	90	0.00	30.188 
00:25	37.5	37.5	37.5	58	24.1	0	2	90	0.00	30.188 
00:30	37.6	37.6	37.6	56	23.3	1	3	90	0.00	30.189 
00:35	37.9	37.9	37.9	55	23.2	1	2	90	0.00	30.190 
00:40	38.2	38.2	38.2	54	23.0	0	2	90	0.00	30.190 
00:45	38.2	38.2	38.2	55	23.5	0	2	90	0.00	30.190 
00:50	38.2	38.2	38.2	54	23.0	0	2	90	0.00	30.191 
00:55	38.3	38.3	38.3	54	23.1	1	3	90	0.00	30.190 
01:00	38.3	38.3	38.3	53	22.7	1	3	90	0.00	30.191 
01:05	38.5	38.5	38.5	52	22.4	1	3	90	0.00	30.188 
01:10	38.5	38.5	38.5	52	22.4	1	3	90	0.00	30.188 
01:15	38.3	38.3	38.3	52	22.2	0	2	90	0.00	30.188 
01:20	38.3	38.3	38.3	54	23.1	0	2	90	0.00	30.187 
01:25	38.2	38.2	38.2	53	22.6	1	3	112	0.00	30.187 
01:30	38.0	38.0	38.0	53	22.4	1	2	112	0.00	30.190 
01:35	37.9	37.9	37.9	52	21.9	1	2	112	0.00	30.190 
01:40	37.9	37.9	37.9	52	21.9	1	2	112	0.00	30.194 
01:45	37.9	37.9	37.9	53	22.3	0	2	112	0.00	30.196 
01:50	37.6	37.6	37.6	54	22.5	0	0	---	0.00	30.195 
01:55	37.5	37.5	37.5	54	22.4	0	0	---	0.00	30.195 
02:00	37.2	37.2	37.2	54	22.1	0	0	---	0.00	30.195 
02:05	37.0	37.0	37.0	54	21.9	0	1	112	0.00	30.195 
02:10	37.0	37.0	37.0	54	21.9	0	1	112	0.00	30.194 
02:15	36.9	36.9	36.9	54	21.8	0	1	112	0.00	30.193 
02:20	36.8	36.8	36.8	54	21.7	0	1	112	0.00	30.191 
02:25	36.8	36.8	36.8	54	21.7	0	1	112	0.00	30.191 
02:30	36.6	36.6	36.6	54	21.5	0	0	---	0.00	30.192 
02:35	36.5	36.5	36.5	55	21.9	0	0	---	0.00	30.191 
02:40	36.5	36.5	36.5	55	21.9	0	2	112	0.00	30.188 
02:45	36.5	36.5	36.5	54	21.5	0	1	112	0.00	30.188 
02:50	36.5	36.5	36.5	54	21.5	0	2	112	0.00	30.187 
02:55	36.6	36.6	36.6	53	21.1	0	1	112	0.00	30.186 
03:00	36.6	36.6	36.6	53	21.1	0	1	112	0.00	30.186 
03:05	36.5	36.5	36.5	53	21.0	0	1	112	0.00	30.186 
03:10	36.5	36.5	36.5	52	20.6	0	2	112	0.00	30.182 
03:15	36.3	36.3	36.3	52	20.4	0	0	---	0.00	30.176 
03:20	36.2	36.2	36.2	52	20.3	0	1	112	0.00	30.175 
03:25	36.2	36.2	36.2	52	20.3	0	1	112	0.00	30.176 
03:30	36.0	36.0	36.0	53	20.5	0	0	---	0.00	30.177 
03:35	35.8	35.8	35.8	53	20.4	0	1	112	0.00	30.176 
03:40	35.6	35.6	35.6	54	20.6	0	1	112	0.00	30.175 
03:45	35.6	35.6	35.6	54	20.6	0	1	112	0.00	30.175 
03:50	35.5	35.5	35.5	54	20.5	0	0	---	0.00	30.176 
03:55	35.3	35.3	35.3	54	20.3	0	0	---	0.00	30.175 
04:00	35.3	35.3	35.3	55	20.8	0	0	---	0.00	30.179 
04:05	35.2	35.2	35.2	55	20.7	0	0	---	0.00	30.178 
04:10	35.0	35.0	35.0	55	20.5	0	0	---	0.00	30.176 
04:15	34.9	34.9	34.9	55	20.4	0	1	112	0.00	30.178 
04:20	34.9	34.9	34.9	55	20.4	0	1	112	0.00	30.175 
04:25	34.9	34.9	34.9	55	20.4	0	1	112	0.00	30.174 
04:30	35.0	35.0	35.0	55	20.5	0	1	112	0.00	30.174 
04:35	35.2	35.2	35.2	56	21.1	0	2	112	0.00	30.174 
04:40	35.3	35.3	35.3	55	20.8	0	2	112	0.00	30.174 
04:45	35.5	35.5	35.5	54	20.5	0	2	112	0.00	30.173 
04:50	35.8	35.8	35.8	54	20.8	0	2	112	0.00	30.172 
04:55	36.0	36.0	36.0	53	20.5	0	3	112	0.00	30.171 
05:00	36.2	36.2	36.2	53	20.7	0	2	45	0.00	30.172 
05:05	36.3	36.3	36.3	53	20.8	0	3	45	0.00	30.174 
05:10	36.3	36.3	36.3	54	21.3	1	3	68	0.00	30.174 
05:15	36.3	36.3	36.3	53	20.8	1	3	68	0.00	30.176 
05:20	36.2	36.2	36.2	54	21.2	0	2	68	0.00	30.177 
05:25	36.2	36.2	36.2	53	20.7	0	3	68	0.00	30.179 
05:30	36.2	36.2	36.2	54	21.2	0	2	68	0.00	30.179 
05:35	36.2	36.2	36.2	54	21.2	0	1	68	0.00	30.181 
05:40	36.0	36.0	36.0	54	21.0	0	1	68	0.00	30.185 
05:45	36.0	36.0	36.0	54	21.0	0	1	68	0.00	30.184 
05:50	36.0	36.0	36.0	55	21.4	0	1	68	0.00	30.186 
05:55	36.0	36.0	36.0	55	21.4	0	1	68	0.00	30.188 
06:00	35.9	35.9	35.9	55	21.3	0	1	68	0.00	30.189 
06:05	35.9	35.9	35.9	55	21.3	0	1	68	0.00	30.193 
06:10	35.8	35.8	35.8	56	21.7	0	1	68	0.00	30.194 
06:15	35.6	35.6	35.6	57	21.9	0	1	68	0.00	30.194 
06:20	35.5	35.5	35.5	57	21.8	0	1	68	0.00	30.195 
06:25	35.2	35.2	35.2	58	21.9	0	1	68	0.00	30.196 
06:30	35.0	35.0	35.0	58	21.7	0	1	68	0.00	30.198 
06:35	35.0	35.0	35.0	58	21.7	0	1	68	0.00	30.198 
06:40	34.9	34.9	34.9	58	21.6	0	0	---	0.00	30.199 
06:45	34.9	34.9	34.9	59	22.0	0	0	---	0.00	30.199 
06:50	34.9	34.9	34.9	59	22.0	0	1	68	0.00	30.197 
06:55	35.0	35.0	35.0	59	22.1	0	1	68	0.00	30.199 
07:00	35.2	35.2	35.2	58	21.9	0	1	68	0.00	30.203 
07:05	35.5	35.5	35.5	58	22.2	0	1	68	0.00	30.208 
07:10	35.6	35.6	35.6	58	22.3	0	2	68	0.00	30.206 
07:15	35.9	35.9	35.9	57	22.2	0	2	68	0.00	30.209 
07:20	36.2	36.2	36.2	56	22.0	1	3	68	0.00	30.210 
07:25	36.6	36.6	36.6	55	22.0	1	4	112	0.00	30.211 
07:30	36.8	36.8	36.8	56	22.6	1	5	90	0.00	30.211 
07:35	36.9	36.9	36.9	57	23.1	0	3	90	0.00	30.211 
07:40	36.9	36.9	36.9	58	23.5	0	3	90	0.00	30.212 
07:45	36.9	36.9	36.9	57	23.1	1	3	112	0.00	30.213 
07:50	37.0	37.0	37.0	58	23.6	0	3	112	0.00	30.213 
07:55	37.0	37.0	37.0	58	23.6	2	5	90	0.00	30.214 
08:00	37.2	37.2	37.2	58	23.8	1	5	90	0.00	30.213 
08:05	37.2	37.2	37.2	58	23.8	1	4	90	0.00	30.215 
08:10	37.3	37.3	37.3	59	24.3	1	4	112	0.00	30.217 
08:15	37.6	37.6	37.6	59	24.6	1	5	112	0.00	30.218 
08:20	37.8	37.8	37.8	59	24.8	2	4	112	0.00	30.219 
08:25	37.9	37.9	37.9	59	24.9	3	6	90	0.00	30.221 
08:30	37.8	34.8	37.8	60	25.2	4	7	112	0.00	30.222 
08:35	37.9	37.9	37.9	61	25.7	1	4	112	0.00	30.222 
08:40	38.0	38.0	38.0	60	25.4	2	5	112	0.00	30.226 
08:45	38.0	38.0	38.0	62	26.2	3	6	112	0.00	30.225 
08:50	38.2	38.2	38.2	62	26.3	1	5	90	0.00	30.225 
08:55	38.5	38.5	38.5	62	26.6	0	2	90	0.00	30.228 
09:00	38.8	38.8	38.8	61	26.5	2	6	90	0.00	30.227 
09:05	38.8	38.8	38.8	61	26.5	3	6	112	0.00	30.231 
09:10	38.9	38.9	38.9	61	26.6	3	5	90	0.00	30.232 
09:15	39.2	39.2	39.2	62	27.3	1	5	112	0.00	30.231 
09:20	39.6	39.6	39.6	62	27.7	2	6	112	0.00	30.229 
09:25	39.9	39.9	39.9	61	27.6	1	3	112	0.00	30.228 
09:30	40.2	40.2	40.2	61	27.8	2	5	112	0.00	30.228 
09:35	40.2	40.2	40.2	61	27.8	2	7	112	0.00	30.228 
09:40	40.2	40.2	40.2	62	28.2	2	5	112	0.00	30.228 
09:45	40.5	40.5	40.5	60	27.7	2	6	112	0.00	30.227 
09:50	40.5	40.5	40.5	61	28.1	3	6	112	0.00	30.228 
09:55	40.6	40.6	40.6	61	28.2	3	5	90	0.00	30.228 
10:00	40.9	40.9	40.9	61	28.5	2	5	112	0.00	30.228 
10:05	41.2	41.2	41.2	62	29.2	2	4	112	0.00	30.229 
10:10	41.6	41.6	41.6	60	28.8	3	5	112	0.00	30.228 
10:15	41.8	41.8	41.8	59	28.5	2	5	112	0.00	30.230 
10:20	42.2	42.2	42.2	60	29.3	1	4	90	0.00	30.231 
10:25	42.6	42.6	42.6	59	29.3	1	3	90	0.00	30.230 
10:30	43.1	43.1	43.1	60	30.2	1	3	90	0.00	30.231 
10:35	43.3	43.3	43.3	58	29.5	2	5	90	0.00	30.230 
10:40	43.5	43.5	43.5	57	29.3	2	6	112	0.00	30.228 
10:45	43.8	43.8	43.8	57	29.6	2	4	112	0.00	30.228 
10:50	44.3	44.3	44.3	56	29.6	2	5	112	0.00	30.228 
10:55	45.1	45.1	45.1	54	29.5	1	3	90	0.00	30.226 
11:00	45.4	45.4	45.4	54	29.7	2	5	112	0.00	30.228 
11:05	45.7	45.7	45.7	54	30.0	2	5	112	0.00	30.228 
11:10	46.0	46.0	46.0	53	29.8	1	3	112	0.00	30.230 
11:15	46.2	46.2	46.2	54	30.5	1	5	112	0.00	30.231 
11:20	46.5	46.5	46.5	53	30.3	1	4	112	0.00	30.232 
11:25	47.1	47.1	47.1	55	31.8	1	4	112	0.00	30.231 
11:30	47.7	47.7	47.7	53	31.4	1	3	112	0.00	30.231 
11:35	48.2	48.2	48.2	50	30.4	1	3	135	0.00	30.233 
11:40	48.5	48.5	48.5	54	32.6	0	2	112	0.00	30.235 
11:45	48.9	48.9	48.9	52	32.1	1	3	112	0.00	30.235 
11:50	49.4	49.4	49.4	50	31.5	0	1	112	0.00	30.233 
11:55	49.9	49.9	49.9	49	31.5	1	3	112	0.00	30.231 
12:00	49.9	49.9	49.9	49	31.5	1	2	112	0.00	30.228 
12:05	50.1	50.1	50.1	49	31.7	0	2	90	0.00	30.225 
12:10	50.5	50.5	50.5	50	32.6	1	3	90	0.00	30.226 
12:15	50.7	50.7	50.7	50	32.7	0	1	90	0.00	30.222 
12:20	50.7	50.7	50.7	53	34.2	1	3	90	0.00	30.220 
12:25	51.0	51.0	51.0	50	33.0	1	4	90	0.00	30.219 
12:30	51.6	51.6	51.6	51	34.1	1	4	90	0.00	30.220 
12:35	52.0	52.0	52.0	51	34.4	2	5	90	0.00	30.219 
12:40	52.3	52.3	52.3	50	34.2	1	3	112	0.00	30.218 
12:45	53.1	53.1	53.1	53	36.4	1	4	45	0.00	30.217 
12:50	53.5	53.5	53.5	48	34.3	1	3	112	0.00	30.215 
12:55	53.9	53.9	53.9	49	35.2	0	2	112	0.00	30.212 
13:00	54.7	54.7	54.7	50	36.4	1	3	68	0.00	30.208 
13:05	54.8	54.8	54.8	49	36.0	2	4	90	0.00	30.209 
13:10	54.7	54.7	54.7	50	36.4	2	5	90	0.00	30.206 
13:15	55.0	55.0	55.0	49	36.2	1	3	22	0.00	30.203 
13:20	55.4	55.4	55.4	49	36.6	2	4	112	0.00	30.202 
13:25	55.6	55.6	55.6	48	36.2	1	5	112	0.00	30.203 
13:30	56.0	56.0	56.0	48	36.6	1	3	68	0.00	30.200 
13:35	56.3	56.3	56.3	49	37.4	1	5	90	0.00	30.196 
13:40	56.6	56.6	56.6	47	36.6	1	3	90	0.00	30.191 
13:45	56.9	56.9	56.9	46	36.3	1	2	90	0.00	30.188 
13:50	57.2	57.2	57.2	47	37.2	0	1	90	0.00	30.186 
13:55	57.6	57.6	57.6	47	37.5	1	4	90	0.00	30.184 
14:00	57.8	57.8	57.8	46	37.2	1	4	90	0.00	30.183 
14:05	57.8	57.8	57.8	45	36.6	1	4	90	0.00	30.180 
14:10	57.8	57.8	57.8	46	37.2	1	5	90	0.00	30.179 
14:15	58.1	58.1	58.1	46	37.4	0	3	90	0.00	30.175 
14:20	58.4	58.4	58.4	46	37.7	1	4	112	0.00	30.176 
14:25	58.9	58.9	58.9	45	37.6	0	1	112	0.00	30.177 
14:30	59.2	59.2	59.2	44	37.3	1	3	112	0.00	30.176 
14:35	59.0	59.0	59.0	44	37.1	1	3	112	0.00	30.175 
14:40	59.0	59.0	59.0	47	38.8	1	2	112	0.00	30.175 
14:45	59.3	59.3	59.3	46	38.5	0	2	338	0.00	30.174 
14:50	59.6	59.6	59.6	45	38.2	0	2	0	0.00	30.172 
14:55	59.9	59.9	59.9	46	39.1	1	4	90	0.00	30.171 
15:00	59.6	59.6	59.6	43	37.1	1	4	112	0.00	30.172 
15:05	59.6	59.6	59.6	46	38.8	1	3	112	0.00	30.173 
15:10	59.6	59.6	59.6	43	37.1	1	2	68	0.00	30.176 
15:15	59.9	59.9	59.9	45	38.5	1	3	68	0.00	30.174 
15:20	60.1	60.1	60.1	43	37.5	0	2	68	0.00	30.175 
15:25	59.8	59.8	59.8	43	37.3	2	6	68	0.00	30.172 
15:30	59.9	59.9	59.9	42	36.8	1	4	112	0.00	30.173 
15:35	60.1	60.1	60.1	42	36.9	0	2	112	0.00	30.171 
15:40	60.4	60.4	60.4	42	37.2	1	3	112	0.00	30.171 
15:45	60.5	60.5	60.5	42	37.3	1	3	112	0.00	30.173 
15:50	60.4	60.4	60.4	41	36.6	1	3	112	0.00	30.173 
15:55	60.4	60.4	60.4	41	36.6	0	1	112	0.00	30.174 
16:00	60.4	60.4	60.4	42	37.2	1	4	112	0.00	30.171 
16:05	60.4	60.4	60.4	42	37.2	1	4	90	0.00	30.168 
16:10	60.5	60.5	60.5	42	37.3	0	3	90	0.00	30.168 
16:15	60.5	60.5	60.5	41	36.7	1	3	90	0.00	30.169 
16:20	60.4	60.4	60.4	42	37.2	1	4	112	0.00	30.168 
16:25	60.4	60.4	60.4	40	36.0	0	2	112	0.00	30.167 
16:30	60.5	60.5	60.5	41	36.7	1	3	68	0.00	30.166 
16:35	60.4	60.4	60.4	41	36.6	0	3	90	0.00	30.167 
16:40	60.5	60.5	60.5	40	36.1	0	1	90	0.00	30.167 
16:45	60.5	60.5	60.5	40	36.1	0	2	90	0.00	30.167 
16:50	60.5	60.5	60.5	42	37.3	0	1	90	0.00	30.167 
16:55	60.5	60.5	60.5	40	36.1	0	2	90	0.00	30.168 
17:00	60.4	60.4	60.4	40	36.0	0	2	90	0.00	30.167 
17:05	60.2	60.2	60.2	40	35.8	1	3	90	0.00	30.167 
17:10	60.1	60.1	60.1	40	35.7	0	2	90	0.00	30.167 
17:15	59.9	59.9	59.9	42	36.8	0	2	90	0.00	30.168 
17:20	59.9	59.9	59.9	41	36.1	0	1	90	0.00	30.167 
17:25	59.9	59.9	59.9	42	36.8	0	2	90	0.00	30.167 
17:30	59.8	59.8	59.8	41	36.1	0	1	90	0.00	30.168 
17:35	59.8	59.8	59.8	43	37.3	0	2	90	0.00	30.168 
17:40	59.6	59.6	59.6	43	37.1	0	0	---	0.00	30.170 
17:45	59.6	59.6	59.6	43	37.1	0	1	90	0.00	30.170 
17:50	59.5	59.5	59.5	42	36.4	1	3	90	0.00	30.172 
17:55	59.3	59.3	59.3	42	36.2	1	3	90	0.00	30.173 
18:00	59.2	59.2	59.2	43	36.7	0	2	90	0.00	30.174 
18:05	59.0	59.0	59.0	43	36.5	1	3	90	0.00	30.174 
18:10	58.7	58.7	58.7	44	36.8	1	2	112	0.00	30.174 
18:15	58.6	58.6	58.6	44	36.8	0	1	112	0.00	30.175 
18:20	58.3	58.3	58.3	45	37.1	1	2	112	0.00	30.181 
18:25	58.0	58.0	58.0	46	37.3	0	1	112	0.00	30.184 
18:30	57.6	57.6	57.6	46	37.0	0	1	112	0.00	30.182 
18:35	57.2	57.2	57.2	46	36.6	0	1	112	0.00	30.182 
18:40	56.7	56.7	56.7	47	36.7	0	0	---	0.00	30.184 
18:45	56.3	56.3	56.3	47	36.3	0	0	---	0.00	30.185 
18:50	55.6	55.6	55.6	48	36.2	0	0	---	0.00	30.188 
18:55	55.0	55.0	55.0	49	36.2	0	0	---	0.00	30.188 
19:00	54.2	54.2	54.2	50	36.0	0	0	---	0.00	30.190 
19:05	53.6	53.6	53.6	52	36.4	0	0	---	0.00	30.189 
19:10	52.9	52.9	52.9	53	36.2	0	0	---	0.00	30.189 
19:15	52.3	52.3	52.3	55	36.6	0	1	112	0.00	30.190 
19:20	51.7	51.7	51.7	56	36.5	0	0	---	0.00	30.192 
19:25	51.1	51.1	51.1	57	36.4	0	0	---	0.00	30.191 
19:30	50.5	50.5	50.5	58	36.3	0	0	---	0.00	30.193 
19:35	49.9	49.9	49.9	59	36.1	0	0	---	0.00	30.197 
19:40	49.5	49.5	49.5	60	36.2	0	0	---	0.00	30.199 
19:45	49.1	49.1	49.1	61	36.2	0	0	---	0.00	30.204 
19:50	48.6	48.6	48.6	62	36.2	0	0	---	0.00	30.206 
19:55	48.2	48.2	48.2	63	36.2	0	0	---	0.00	30.209 
20:00	47.7	47.7	47.7	64	36.1	0	0	---	0.00	30.210 
20:05	47.3	47.3	47.3	65	36.1	0	0	---	0.00	30.209 
20:10	47.0	47.0	47.0	65	35.9	0	0	---	0.00	30.210 
20:15	46.5	46.5	46.5	66	35.8	0	0	---	0.00	30.209 
20:20	46.1	46.1	46.1	66	35.4	0	0	---	0.00	30.212 
20:25	45.7	45.7	45.7	68	35.8	0	0	---	0.00	30.210 
20:30	45.2	45.2	45.2	69	35.6	0	0	---	0.00	30.211 
20:35	44.9	44.9	44.9	69	35.4	0	0	---	0.00	30.211 
20:40	44.5	44.5	44.5	71	35.7	0	0	---	0.00	30.212 
20:45	44.2	44.2	44.2	72	35.8	0	0	---	0.00	30.212 
20:50	43.9	43.9	43.9	73	35.8	0	0	---	0.00	30.213 
20:55	43.6	43.6	43.6	73	35.5	0	0	---	0.00	30.216 
21:00	43.3	43.3	43.3	74	35.6	0	0	---	0.00	30.220 
21:05	43.3	43.3	43.3	75	35.9	0	0	---	0.00	30.219 
21:10	43.1	43.1	43.1	76	36.1	0	0	---	0.00	30.218 
21:15	42.9	42.9	42.9	76	35.9	0	0	---	0.00	30.216 
21:20	42.6	42.6	42.6	77	35.9	0	0	---	0.00	30.213 
21:25	42.3	42.3	42.3	77	35.6	0	0	---	0.00	30.213 
21:30	42.8	42.8	42.8	78	36.4	1	4	90	0.00	30.217 
21:35	44.3	44.3	44.3	72	35.9	2	5	90	0.00	30.215 
21:40	46.0	46.0	46.0	65	34.9	2	4	112	0.00	30.214 
21:45	47.0	47.0	47.0	62	34.7	2	4	112	0.00	30.214 
21:50	47.3	47.3	47.3	59	33.7	1	4	90	0.00	30.216 
21:55	47.3	47.3	47.3	58	33.3	1	2	90	0.00	30.218 
22:00	47.1	47.1	47.1	57	32.7	1	2	90	0.00	30.217 
22:05	47.0	47.0	47.0	57	32.6	0	2	90	0.00	30.214 
22:10	46.7	46.7	46.7	57	32.3	0	2	90	0.00	30.211 
22:15	46.4	46.4	46.4	57	32.0	0	3	90	0.00	30.214 
22:20	46.2	46.2	46.2	57	31.8	0	2	90	0.00	30.217 
22:25	46.0	46.0	46.0	58	32.1	0	2	90	0.00	30.216 
22:30	45.7	45.7	45.7	58	31.8	1	3	90	0.00	30.212 
22:35	45.5	45.5	45.5	59	32.0	0	2	90	0.00	30.214 
22:40	45.4	45.4	45.4	59	31.9	0	1	90	0.00	30.213 
22:45	45.1	45.1	45.1	60	32.1	0	1	90	0.00	30.211 
22:50	44.8	44.8	44.8	60	31.8	0	1	90	0.00	30.208 
22:55	44.5	44.5	44.5	61	31.9	0	1	90	0.00	30.209 
23:00	44.3	44.3	44.3	61	31.7	0	1	90	0.00	30.210 
23:05	44.2	44.2	44.2	61	31.6	0	2	90	0.00	30.205 
23:10	44.1	44.1	44.1	61	31.5	0	1	90	0.00	30.206 
23:15	43.8	43.8	43.8	62	31.6	0	0	---	0.00	30.208 
23:20	43.3	43.3	43.3	62	31.2	0	0	---	0.00	30.209 
23:25	42.8	42.8	42.8	63	31.1	0	0	---	0.00	30.212 
23:30	42.3	42.3	42.3	64	31.0	0	0	---	0.00	30.210 
23:35	41.8	41.8	41.8	65	30.9	0	0	---	0.00	30.208 
23:40	41.3	41.3	41.3	66	30.8	0	0	---	0.00	30.211 
23:45	40.9	40.9	40.9	67	30.8	0	0	---	0.00	30.213 
23:50	40.3	40.3	40.3	68	30.6	0	0	---	0.00	30.214 
23:55	39.9	39.9	39.9	69	30.6	0	0	---	0.00	30.214 

CoCoRaHS
IN-AL-39
A2 Web Hosting
Creative Commons License
GoDaddy
search engine by freefind advanced

loaded 2018-11-19 18:49:20 • last modified 2010-11-18 10:43:29
Privacy PolicyDisclaimer
• wx.awcolley.com is powered by PmWiki v.2002016 •
• all content (unless otherwise noted) © 2018 A W Colley